createdAt,value
2019-06-01T00:02:16.189Z,102171.16
2019-06-01T00:04:47.105Z,102166.23
2019-06-01T00:07:16.797Z,102164.12
2019-06-01T00:09:47.252Z,102161.23
2019-06-01T00:12:16.767Z,102162.69
2019-06-01T00:14:48.136Z,102153.08
2019-06-01T00:17:17.723Z,102157.82
2019-06-01T00:19:48.262Z,102155.13
2019-06-01T00:22:17.943Z,102158.58
2019-06-01T00:24:48.027Z,102153.73
2019-06-01T00:27:17.710Z,102145.00
2019-06-01T00:29:49.510Z,102151.38
2019-06-01T00:32:19.058Z,102148.28
2019-06-01T00:34:49.652Z,102152.10
2019-06-01T00:37:19.367Z,102150.75
2019-06-01T00:39:49.928Z,102152.10
2019-06-01T00:42:19.549Z,102149.27
2019-06-01T00:44:50.447Z,102144.30
2019-06-01T00:47:20.057Z,102145.28
2019-06-01T00:49:50.989Z,102139.06
2019-06-01T00:52:20.604Z,102139.48
2019-06-01T00:54:51.414Z,102142.13
2019-06-01T00:57:22.177Z,102146.77
2019-06-01T00:59:53.695Z,102149.46
2019-06-01T01:02:23.533Z,102146.88
2019-06-01T01:05:02.950Z,102147.47
2019-06-01T01:07:32.449Z,102150.81
2019-06-01T01:10:01.947Z,102150.56
2019-06-01T01:12:33.050Z,102151.69
2019-06-01T01:15:02.851Z,102156.97
2019-06-01T01:17:32.442Z,102149.64
2019-06-01T01:20:02.077Z,102155.68
2019-06-01T01:22:31.820Z,102155.20
2019-06-01T01:25:01.758Z,102157.90
2019-06-01T01:27:31.344Z,102150.92
2019-06-01T01:30:00.929Z,102147.80
2019-06-01T01:32:30.637Z,102149.05
2019-06-01T01:35:00.100Z,102144.16
2019-06-01T01:37:30.039Z,102146.85
2019-06-01T01:39:59.487Z,102143.14
2019-06-01T01:42:28.976Z,102138.33
2019-06-01T01:44:58.693Z,102129.20
2019-06-01T01:47:29.147Z,102131.25
2019-06-01T01:49:58.619Z,102131.95
2019-06-01T01:52:28.246Z,102129.84
2019-06-01T01:54:58.905Z,102127.15
2019-06-01T01:57:28.538Z,102125.80
2019-06-01T01:59:59.397Z,102120.77
2019-06-01T02:02:28.934Z,102120.65
2019-06-01T02:04:58.388Z,102126.87
2019-06-01T02:07:27.998Z,102120.18
2019-06-01T02:09:57.486Z,102121.89
2019-06-01T02:12:27.511Z,102122.17
2019-06-01T02:14:57.714Z,102121.11
2019-06-01T02:17:27.309Z,102121.36
2019-06-01T02:19:56.881Z,102120.40
2019-06-01T02:22:27.583Z,102120.59
2019-06-01T02:24:57.803Z,102116.35
2019-06-01T02:27:27.748Z,102112.30
2019-06-01T02:29:57.338Z,102112.73
2019-06-01T02:32:26.846Z,102109.33
2019-06-01T02:34:56.450Z,102111.20
2019-06-01T02:37:29.714Z,102116.01
2019-06-01T02:40:00.931Z,102116.41
2019-06-01T02:42:30.507Z,102111.96
2019-06-01T02:45:01.549Z,102111.17
2019-06-01T02:47:31.671Z,102104.91
2019-06-01T02:50:04.419Z,102106.56
2019-06-01T02:52:35.231Z,102106.84
2019-06-01T02:55:06.487Z,102108.19
2019-06-01T02:57:36.090Z,102105.15
2019-06-01T03:00:06.888Z,102103.80
2019-06-01T03:02:37.406Z,102098.99
2019-06-01T03:05:07.713Z,102098.88
2019-06-01T03:07:40.423Z,102093.71
2019-06-01T03:10:10.033Z,102094.78
2019-06-01T03:12:46.519Z,102091.48
2019-06-01T03:15:17.191Z,102092.95
2019-06-01T03:17:51.267Z,102090.87
2019-06-01T03:20:20.939Z,102086.55
2019-06-01T03:22:53.389Z,102089.20
2019-06-01T03:25:22.895Z,102090.86
2019-06-01T03:27:55.851Z,102089.20
2019-06-01T03:30:50.932Z,102095.95
2019-06-01T03:33:20.557Z,102095.55
2019-06-01T03:35:50.032Z,102098.53
2019-06-01T03:38:19.823Z,102099.65
2019-06-01T03:40:49.285Z,102099.81
2019-06-01T03:43:19.525Z,102094.11
2019-06-01T03:45:49.071Z,102095.42
2019-06-01T03:48:18.546Z,102100.00
2019-06-01T03:50:48.010Z,102089.79
2019-06-01T03:53:17.523Z,102098.45
2019-06-01T03:55:47.029Z,102094.33
2019-06-01T03:58:16.638Z,102097.19
2019-06-01T04:00:46.342Z,102093.17
2019-06-01T04:03:15.865Z,102093.17
2019-06-01T04:05:45.305Z,102092.70
2019-06-01T04:08:15.169Z,102096.40
2019-06-01T04:10:44.612Z,102093.58
2019-06-01T04:13:14.195Z,102087.54
2019-06-01T04:15:43.779Z,102091.75
2019-06-01T04:18:13.905Z,102086.08
2019-06-01T04:20:44.706Z,102089.29
2019-06-01T04:23:14.323Z,102088.65
2019-06-01T04:25:43.793Z,102093.66
2019-06-01T04:28:13.341Z,102090.36
2019-06-01T04:30:44.921Z,102100.13
2019-06-01T04:33:14.355Z,102092.38
2019-06-01T04:35:43.834Z,102093.38
2019-06-01T04:38:13.515Z,102086.02
2019-06-01T04:40:43.079Z,102087.28
2019-06-01T04:43:14.008Z,102089.47
2019-06-01T04:45:43.920Z,102082.23
2019-06-01T04:48:14.681Z,102084.85
2019-06-01T04:50:44.249Z,102084.88
2019-06-01T04:53:15.033Z,102083.80
2019-06-01T04:55:44.822Z,102083.80
2019-06-01T04:58:15.069Z,102085.15
2019-06-01T05:00:44.563Z,102083.68
2019-06-01T05:03:15.225Z,102080.22
2019-06-01T05:05:45.026Z,102077.37
2019-06-01T05:08:15.667Z,102079.23
2019-06-01T05:10:45.374Z,102081.09
2019-06-01T05:13:15.686Z,102076.47
2019-06-01T05:15:45.372Z,102082.27
2019-06-01T05:18:18.440Z,102076.67
2019-06-01T05:20:46.668Z,102085.29
2019-06-01T05:23:16.953Z,102080.98
2019-06-01T05:25:46.604Z,102079.03
2019-06-01T05:28:17.367Z,102078.94
2019-06-01T05:30:47.201Z,102080.67
2019-06-01T05:33:29.483Z,102077.86
2019-06-01T05:35:47.900Z,102077.87
2019-06-01T05:38:19.007Z,102076.19
2019-06-01T05:40:48.478Z,102073.23
2019-06-01T05:43:21.117Z,102064.52
2019-06-01T05:45:49.339Z,102068.84
2019-06-01T05:48:24.714Z,102067.61
2019-06-01T05:50:50.566Z,102065.30
2019-06-01T05:53:20.249Z,102066.91
2019-06-01T05:55:49.794Z,102066.78
2019-06-01T05:58:19.821Z,102065.92
2019-06-01T06:00:49.942Z,102073.73
2019-06-01T06:03:22.324Z,102066.97
2019-06-01T06:05:50.683Z,102069.16
2019-06-01T06:08:20.259Z,102073.48
2019-06-01T06:10:49.853Z,102070.16
2019-06-01T06:13:21.641Z,102064.27
2019-06-01T06:15:51.605Z,102067.20
2019-06-01T06:18:21.989Z,102062.52
2019-06-01T06:20:51.629Z,102058.94
2019-06-01T06:23:22.629Z,102061.30
2019-06-01T06:25:52.407Z,102058.94
2019-06-01T06:28:22.958Z,102053.05
2019-06-01T06:30:53.683Z,102047.99
2019-06-01T06:33:23.710Z,102040.78
2019-06-01T06:35:53.331Z,102039.65
2019-06-01T06:38:24.079Z,102027.90
2019-06-01T06:40:53.667Z,102020.38
2019-06-01T06:43:31.030Z,102020.77
2019-06-01T06:45:54.850Z,102021.60
2019-06-01T06:48:25.264Z,102023.41
2019-06-01T06:50:54.971Z,102028.44
2019-06-01T06:53:33.560Z,102030.22
2019-06-01T06:55:56.154Z,102021.39
2019-06-01T06:58:26.536Z,102027.50
2019-06-01T07:00:56.654Z,102021.61
2019-06-01T07:03:27.195Z,102022.62
2019-06-01T07:05:56.724Z,102040.14
2019-06-01T07:08:26.630Z,102041.38
2019-06-01T07:10:56.165Z,102043.37
2019-06-01T07:13:25.988Z,102040.91
2019-06-01T07:15:55.584Z,102044.08
2019-06-01T07:18:25.781Z,102040.66
2019-06-01T07:20:55.516Z,102046.89
2019-06-01T07:23:25.946Z,102041.67
2019-06-01T07:25:55.563Z,102036.04
2019-06-01T07:28:26.140Z,102037.23
2019-06-01T07:30:55.856Z,102037.09
2019-06-01T07:33:26.435Z,102037.09
2019-06-01T07:35:56.330Z,102033.06
2019-06-01T07:38:26.804Z,102031.39
2019-06-01T07:40:56.460Z,102027.71
2019-06-01T07:43:26.832Z,102028.05
2019-06-01T07:45:56.503Z,102038.86
2019-06-01T07:48:27.138Z,102031.27
2019-06-01T07:50:59.232Z,102036.83
2019-06-01T07:53:29.544Z,102028.41
2019-06-01T07:55:59.141Z,102036.78
2019-06-01T07:58:28.991Z,102035.74
2019-06-01T08:00:59.065Z,102030.83
2019-06-01T08:03:32.593Z,102029.97
2019-06-01T08:05:59.985Z,102023.88
2019-06-01T08:08:29.654Z,102030.19
2019-06-01T08:11:00.282Z,102027.17
2019-06-01T08:13:33.427Z,102011.52
2019-06-01T08:16:01.029Z,102028.16
2019-06-01T08:18:30.443Z,102031.10
2019-06-01T08:21:00.020Z,102041.62
2019-06-01T08:23:34.168Z,102033.07
2019-06-01T08:26:03.732Z,102026.11
2019-06-01T08:28:35.236Z,102035.23
2019-06-01T08:31:04.816Z,102025.27
2019-06-01T08:33:35.015Z,102026.37
2019-06-01T08:36:05.065Z,102026.71
2019-06-01T08:38:34.880Z,102018.06
2019-06-01T08:41:04.395Z,102031.28
2019-06-01T08:43:34.011Z,102029.55
2019-06-01T08:46:05.162Z,102024.33
2019-06-01T08:48:34.648Z,102023.48
2019-06-01T08:51:04.194Z,102013.69
2019-06-01T08:53:34.276Z,102026.39
2019-06-01T08:56:04.053Z,102030.01
2019-06-01T08:58:34.645Z,102039.77
2019-06-01T09:01:04.442Z,102036.33
2019-06-01T09:03:39.902Z,102038.92
2019-06-01T09:06:05.862Z,102035.49
2019-06-01T09:08:35.503Z,102027.09
2019-06-01T09:11:05.097Z,102023.66
2019-06-01T09:13:35.471Z,102016.58
2019-06-01T09:16:05.461Z,102016.87
2019-06-01T09:18:35.818Z,102021.66
2019-06-01T09:21:05.578Z,102020.79
2019-06-01T09:23:37.107Z,102015.65
2019-06-01T09:26:06.478Z,102014.05
2019-06-01T09:28:36.271Z,102016.44
2019-06-01T09:31:06.038Z,102015.22
2019-06-01T09:33:36.863Z,102024.41
2019-06-01T09:36:06.551Z,102017.13
2019-06-01T09:38:36.230Z,102007.13
2019-06-01T09:41:06.047Z,102006.81
2019-06-01T09:43:35.663Z,102013.73
2019-06-01T09:46:05.436Z,102007.45
2019-06-01T09:48:35.666Z,102006.23
2019-06-01T09:51:05.345Z,102001.64
2019-06-01T09:53:36.126Z,102005.89
2019-06-01T09:56:05.970Z,102016.84
2019-06-01T09:58:36.897Z,102016.08
2019-06-01T10:01:06.684Z,102013.33
2019-06-01T10:03:36.552Z,102012.20
2019-06-01T10:06:07.370Z,102004.94
2019-06-01T10:08:38.166Z,102009.56
2019-06-01T10:11:08.444Z,102010.59
2019-06-01T10:13:38.560Z,102013.22
2019-06-01T10:16:08.570Z,102010.09
2019-06-01T10:18:38.945Z,102008.38
2019-06-01T10:21:10.019Z,102004.02
2019-06-01T10:23:40.053Z,102006.97
2019-06-01T10:26:09.525Z,101999.41
2019-06-01T10:28:39.834Z,102007.98
2019-06-01T10:31:09.933Z,102005.20
2019-06-01T10:33:39.471Z,102004.48
2019-06-01T10:36:19.822Z,102006.72
2019-06-01T10:38:41.467Z,102008.99
2019-06-01T10:41:11.080Z,102003.03
2019-06-01T10:43:41.757Z,102007.53
2019-06-01T10:46:14.203Z,102004.73
2019-06-01T10:48:45.822Z,102004.59
2019-06-01T10:51:15.291Z,102006.86
2019-06-01T10:53:44.898Z,102007.38
2019-06-01T10:56:14.454Z,102009.81
2019-06-01T10:58:59.415Z,102001.89
2019-06-01T11:01:15.263Z,102006.75
2019-06-01T11:03:44.975Z,102005.76
2019-06-01T11:06:14.411Z,102006.72
2019-06-01T11:08:43.919Z,102001.57
2019-06-01T11:11:13.759Z,101989.13
2019-06-01T11:13:43.379Z,102001.19
2019-06-01T11:16:12.919Z,101995.36
2019-06-01T11:18:43.619Z,101990.20
2019-06-01T11:21:13.203Z,101988.65
2019-06-01T11:23:46.133Z,101993.48
2019-06-01T11:26:14.125Z,101986.98
2019-06-01T11:28:44.344Z,101983.41
2019-06-01T11:31:14.046Z,101987.46
2019-06-01T11:33:44.272Z,101984.05
2019-06-01T11:36:14.036Z,101979.27
2019-06-01T11:38:45.129Z,101980.12
2019-06-01T11:41:18.336Z,101980.61
2019-06-01T11:43:46.225Z,101976.36
2019-06-01T11:46:15.929Z,101979.42
2019-06-01T11:48:45.540Z,101987.17
2019-06-01T11:51:15.031Z,101976.35
2019-06-01T11:53:45.631Z,101980.62
2019-06-01T11:56:15.391Z,101981.61
2019-06-01T11:58:45.616Z,101973.95
2019-06-01T12:01:15.462Z,101977.33
2019-06-01T12:03:46.212Z,101970.00
2019-06-01T12:06:15.759Z,101966.03
2019-06-01T12:08:46.319Z,101970.12
2019-06-01T12:11:16.259Z,101966.84
2019-06-01T12:13:46.554Z,101960.73
2019-06-01T12:16:16.709Z,101965.33
2019-06-01T12:18:46.900Z,101955.44
2019-06-01T12:21:16.592Z,101953.23
2019-06-01T12:23:47.653Z,101955.64
2019-06-01T12:26:17.257Z,101951.66
2019-06-01T12:28:47.886Z,101947.23
2019-06-01T12:31:17.728Z,101949.62
2019-06-01T12:33:48.664Z,101950.33
2019-06-01T12:36:18.396Z,101949.98
2019-06-01T12:38:52.215Z,101953.91
2019-06-01T12:41:23.439Z,101949.14
2019-06-01T12:44:12.433Z,101939.70
2019-06-01T12:46:43.689Z,101956.59
2019-06-01T12:49:13.468Z,101947.33
2019-06-01T12:51:44.541Z,101945.63
2019-06-01T12:54:15.069Z,101946.80
2019-06-01T12:56:47.809Z,101937.77
2019-06-01T12:59:17.700Z,101939.80
2019-06-01T13:01:47.386Z,101934.34
2019-06-01T13:04:17.806Z,101937.67
2019-06-01T13:06:52.297Z,101932.39
2019-06-01T13:09:21.420Z,101937.34
2019-06-01T13:11:51.522Z,101930.33
2019-06-01T13:14:21.211Z,101927.92
2019-06-01T13:17:06.274Z,101925.20
2019-06-01T13:19:24.007Z,101917.34
2019-06-01T13:21:53.512Z,101922.63
2019-06-01T13:24:23.019Z,101912.90
2019-06-01T13:26:52.777Z,101907.74
2019-06-01T13:29:25.320Z,101910.30
2019-06-01T13:31:54.965Z,101905.77
2019-06-01T13:34:26.094Z,101904.00
2019-06-01T13:36:55.612Z,101891.52
2019-06-01T13:39:25.104Z,101904.86
2019-06-01T13:41:54.775Z,101893.20
2019-06-01T13:44:24.337Z,101895.09
2019-06-01T13:46:53.815Z,101894.91
2019-06-01T13:49:23.345Z,101901.26
2019-06-01T13:51:52.875Z,101901.25
2019-06-01T13:54:22.432Z,101897.65
2019-06-01T13:56:53.086Z,101894.08
2019-06-01T13:59:23.191Z,101894.74
2019-06-01T14:01:53.196Z,101889.98
2019-06-01T14:04:22.920Z,101890.66
2019-06-01T14:06:53.144Z,101888.42
2019-06-01T14:09:23.274Z,101887.92
2019-06-01T14:11:53.509Z,101883.09
2019-06-01T14:14:23.051Z,101884.47
2019-06-01T14:16:53.671Z,101886.02
2019-06-01T14:19:23.338Z,101897.83
2019-06-01T14:21:54.212Z,101884.83
2019-06-01T14:24:23.821Z,101893.88
2019-06-01T14:26:54.362Z,101897.67
2019-06-01T14:29:24.049Z,101893.36
2019-06-01T14:31:55.335Z,101899.36
2019-06-01T14:34:25.552Z,101907.59
2019-06-01T14:36:56.590Z,101915.62
2019-06-01T14:39:26.299Z,101914.24
2019-06-01T14:41:55.863Z,101916.46
2019-06-01T14:44:25.524Z,101914.65
2019-06-01T14:47:05.034Z,101916.31
2019-06-01T14:49:26.267Z,101914.40
2019-06-01T14:51:55.846Z,101911.27
2019-06-01T14:54:25.991Z,101916.42
2019-06-01T14:56:55.890Z,101919.62
2019-06-01T14:59:25.541Z,101924.61
2019-06-01T15:01:56.184Z,101922.95
2019-06-01T15:04:26.168Z,101918.16
2019-06-01T15:06:56.484Z,101924.66
2019-06-01T15:09:26.150Z,101919.28
2019-06-01T15:11:56.568Z,101919.96
2019-06-01T15:14:26.225Z,101916.33
2019-06-01T15:16:56.213Z,101933.89
2019-06-01T15:19:25.868Z,101924.73
2019-06-01T15:21:56.232Z,101930.53
2019-06-01T15:24:26.267Z,101929.48
2019-06-01T15:26:58.961Z,101928.57
2019-06-01T15:29:29.086Z,101919.56
2019-06-01T15:32:00.040Z,101924.96
2019-06-01T15:34:30.077Z,101931.98
2019-06-01T15:36:59.799Z,101938.72
2019-06-01T15:39:29.424Z,101938.97
2019-06-01T15:41:59.664Z,101931.50
2019-06-01T15:44:29.357Z,101930.18
2019-06-01T15:46:59.742Z,101925.05
2019-06-01T15:49:29.553Z,101921.33
2019-06-01T15:52:02.056Z,101926.91
2019-06-01T15:54:31.819Z,101926.50
2019-06-01T15:57:02.715Z,101926.28
2019-06-01T15:59:32.693Z,101921.25
2019-06-01T16:02:03.458Z,101918.06
2019-06-01T16:04:33.414Z,101917.28
2019-06-01T16:07:03.482Z,101923.35
2019-06-01T16:09:42.593Z,101923.84
2019-06-01T16:12:04.425Z,101920.52
2019-06-01T16:14:33.957Z,101918.30
2019-06-01T16:17:04.796Z,101912.72
2019-06-01T16:19:34.429Z,101909.83
2019-06-01T16:22:04.975Z,101916.65
2019-06-01T16:24:34.572Z,101918.38
2019-06-01T16:27:04.736Z,101914.41
2019-06-01T16:29:34.588Z,101917.55
2019-06-01T16:32:05.076Z,101913.20
2019-06-01T16:34:36.121Z,101914.67
2019-06-01T16:37:05.705Z,101916.42
2019-06-01T16:39:35.216Z,101921.66
2019-06-01T16:42:06.099Z,101920.30
2019-06-01T16:44:35.937Z,101917.39
2019-06-01T16:47:06.121Z,101918.59
2019-06-01T16:49:36.141Z,101908.79
2019-06-01T16:52:07.412Z,101912.50
2019-06-01T16:54:37.775Z,101909.55
2019-06-01T16:57:07.550Z,101905.86
2019-06-01T16:59:37.060Z,101914.19
2019-06-01T17:02:07.886Z,101918.26
2019-06-01T17:04:37.731Z,101920.66
2019-06-01T17:07:08.725Z,101909.74
2019-06-01T17:09:39.061Z,101907.36
2019-06-01T17:12:09.358Z,101906.65
2019-06-01T17:14:39.584Z,101914.17
2019-06-01T17:17:09.172Z,101914.69
2019-06-01T17:19:39.439Z,101919.91
2019-06-01T17:22:10.173Z,101918.67
2019-06-01T17:24:39.657Z,101921.34
2019-06-01T17:27:09.213Z,101942.55
2019-06-01T17:29:39.477Z,101930.08
2019-06-01T17:32:23.041Z,101930.16
2019-06-01T17:34:43.586Z,101929.02
2019-06-01T17:37:13.130Z,101929.39
2019-06-01T17:39:42.697Z,101934.83
2019-06-01T17:42:12.705Z,101934.05
2019-06-01T17:44:42.318Z,101927.05
2019-06-01T17:47:12.224Z,101932.63
2019-06-01T17:49:41.791Z,101935.35
2019-06-01T17:52:11.887Z,101942.63
2019-06-01T17:54:41.394Z,101947.13
2019-06-01T17:57:11.472Z,101940.81
2019-06-01T17:59:41.043Z,101936.41
2019-06-01T18:02:11.920Z,101939.63
2019-06-01T18:04:41.520Z,101939.98
2019-06-01T18:07:12.061Z,101940.03
2019-06-01T18:09:41.656Z,101928.44
2019-06-01T18:12:12.290Z,101931.22
2019-06-01T18:14:41.812Z,101928.70
2019-06-01T18:17:12.384Z,101930.26
2019-06-01T18:19:42.351Z,101921.05
2019-06-01T18:22:12.960Z,101927.02
2019-06-01T18:24:42.585Z,101920.25
2019-06-01T18:27:12.677Z,101929.66
2019-06-01T18:29:48.324Z,101927.46
2019-06-01T18:32:13.855Z,101929.60
2019-06-01T18:34:43.567Z,101934.11
2019-06-01T18:37:13.460Z,101929.36
2019-06-01T18:39:47.928Z,101929.36
2019-06-01T18:42:18.651Z,101933.86
2019-06-01T18:44:46.704Z,101930.67
2019-06-01T18:47:31.413Z,101939.25
2019-06-01T18:49:47.738Z,101936.53
2019-06-01T18:52:17.309Z,101937.23
2019-06-01T18:54:47.084Z,101941.73
2019-06-01T18:57:21.176Z,101941.94
2019-06-01T18:59:48.281Z,101941.45
2019-06-01T19:02:17.758Z,101938.73
2019-06-01T19:04:47.342Z,101940.82
2019-06-01T19:07:16.865Z,101949.51
2019-06-01T19:09:46.474Z,101950.62
2019-06-01T19:12:16.178Z,101943.08
2019-06-01T19:14:45.652Z,101944.36
2019-06-01T19:17:16.455Z,101943.68
2019-06-01T19:19:46.331Z,101941.86
2019-06-01T19:22:16.734Z,101944.72
2019-06-01T19:24:46.244Z,101940.68
2019-06-01T19:27:17.025Z,101943.74
2019-06-01T19:29:46.554Z,101946.76
2019-06-01T19:32:20.854Z,101939.63
2019-06-01T19:34:48.009Z,101944.92
2019-06-01T19:37:18.070Z,101948.87
2019-06-01T19:39:48.999Z,101954.06
2019-06-01T19:42:18.664Z,101961.98
2019-06-01T19:44:48.576Z,101960.99
2019-06-01T19:47:19.184Z,101960.13
2019-06-01T19:49:48.895Z,101957.81
2019-06-01T19:52:19.046Z,101956.20
2019-06-01T19:54:50.654Z,101955.83
2019-06-01T19:57:24.051Z,101951.89
2019-06-01T19:59:54.698Z,101950.89
2019-06-01T20:02:33.589Z,101955.95
2019-06-01T20:04:56.607Z,101951.77
2019-06-01T20:07:26.038Z,101951.99
2019-06-01T20:09:55.974Z,101952.98
2019-06-01T20:12:25.955Z,101957.41
2019-06-01T20:14:55.492Z,101952.60
2019-06-01T20:17:26.554Z,101949.55
2019-06-01T20:19:56.339Z,101951.89
2019-06-01T20:22:26.020Z,101957.53
2019-06-01T20:24:55.601Z,101961.23
2019-06-01T20:27:27.155Z,101962.71
2019-06-01T20:29:56.664Z,101962.58
2019-06-01T20:32:27.862Z,101955.68
2019-06-01T20:34:57.780Z,101955.41
2019-06-01T20:37:27.460Z,101957.15
2019-06-01T20:39:57.062Z,101951.86
2019-06-01T20:42:32.620Z,101953.70
2019-06-01T20:44:58.829Z,101948.77
2019-06-01T20:47:28.334Z,101940.64
2019-06-01T20:49:58.052Z,101939.54
2019-06-01T20:52:28.454Z,101947.27
2019-06-01T20:54:57.961Z,101946.29
2019-06-01T20:57:27.590Z,101944.41
2019-06-01T20:59:57.150Z,101948.20
2019-06-01T21:02:26.681Z,101945.21
2019-06-01T21:04:56.189Z,101948.89
2019-06-01T21:07:25.653Z,101941.16
2019-06-01T21:09:58.116Z,101946.95
2019-06-01T21:12:44.448Z,101943.51
2019-06-01T21:14:58.938Z,101950.49
2019-06-01T21:17:29.781Z,101945.07
2019-06-01T21:20:04.218Z,101942.37
2019-06-01T21:22:30.702Z,101945.34
2019-06-01T21:25:00.412Z,101946.94
2019-06-01T21:27:30.455Z,101947.42
2019-06-01T21:30:00.180Z,101947.42
2019-06-01T21:32:29.709Z,101940.78
2019-06-01T21:34:59.378Z,101946.67
2019-06-01T21:37:29.161Z,101939.91
2019-06-01T21:39:58.738Z,101941.13
2019-06-01T21:42:28.344Z,101941.87
2019-06-01T21:45:00.986Z,101947.65
2019-06-01T21:47:35.281Z,101941.98
2019-06-01T21:50:05.254Z,101943.30
2019-06-01T21:52:35.098Z,101942.68
2019-06-01T21:55:04.697Z,101946.11
2019-06-01T21:57:36.152Z,101946.92
2019-06-01T22:00:09.691Z,101937.80
2019-06-01T22:02:40.253Z,101935.70
2019-06-01T22:05:10.442Z,101940.23
2019-06-01T22:07:39.937Z,101937.06
2019-06-01T22:10:09.804Z,101934.09
2019-06-01T22:12:39.834Z,101939.01
2019-06-01T22:15:10.165Z,101938.38
2019-06-01T22:17:45.027Z,101938.08
2019-06-01T22:20:14.645Z,101943.33
2019-06-01T22:22:44.150Z,101947.73
2019-06-01T22:25:13.893Z,101936.19
2019-06-01T22:27:43.917Z,101942.58
2019-06-01T22:30:15.275Z,101942.58
2019-06-01T22:32:44.781Z,101938.14
2019-06-01T22:35:18.716Z,101937.54
2019-06-01T22:37:48.289Z,101932.11
2019-06-01T22:40:19.378Z,101930.41
2019-06-01T22:42:49.290Z,101917.86
2019-06-01T22:45:20.105Z,101920.59
2019-06-01T22:47:49.972Z,101920.66
2019-06-01T22:50:22.795Z,101913.93
2019-06-01T22:52:52.249Z,101919.75
2019-06-01T22:55:22.046Z,101913.02
2019-06-01T22:57:51.734Z,101916.53
2019-06-01T23:00:21.530Z,101912.88
2019-06-01T23:02:51.160Z,101911.65
2019-06-01T23:05:24.945Z,101916.36
2019-06-01T23:07:54.613Z,101916.00
2019-06-01T23:10:29.532Z,101909.85
2019-06-01T23:12:55.741Z,101911.30
2019-06-01T23:15:25.689Z,101909.52
2019-06-01T23:17:55.267Z,101910.17
2019-06-01T23:20:28.042Z,101908.08
2019-06-01T23:23:03.733Z,101910.50
2019-06-01T23:25:35.461Z,101909.23
2019-06-01T23:28:07.893Z,101911.18
2019-06-01T23:30:37.986Z,101909.59
2019-06-01T23:33:08.760Z,101910.16
2019-06-01T23:35:38.479Z,101915.91
2019-06-01T23:38:07.950Z,101912.33
2019-06-01T23:40:37.482Z,101914.99
2019-06-01T23:43:07.173Z,101910.67
2019-06-01T23:45:36.757Z,101908.48
2019-06-01T23:48:06.339Z,101913.48
2019-06-01T23:50:36.269Z,101911.37
2019-06-01T23:53:13.681Z,101910.39
2019-06-01T23:55:37.111Z,101908.08
2019-06-01T23:58:06.905Z,101904.94
